Terminal Aerodrome Forecast
Issued by NWS

Home | Current Version | Previous Version | Text Only | Print | Product List | Glossary On
Versions: 1 2 3 4 5 6 7 8 9 10 11 12 13 14 15 16 17 18 19 20 21 22 23 24 25 26 27 28 29 30 31 32 33 34 35 36 37 38 39 40 41 42 43 44
000
FTUS42 KCAE 180500
TAFOGB
TAF
KOGB 180534Z 1806/1906 00000KT 6SM BR FEW002 FEW050
     FM180800 00000KT 4SM BR SCT002
      TEMPO 1809/1812 1/2SM FG VV002
     FM181300 VRB03KT 3SM BR BKN002
     FM181500 06005KT P6SM SCT012 BKN020
     FM181800 08005KT P6SM SCT050=

USA.gov is the U.S. government's official web portal to all federal, state and local government web resources and services.